Skip to main content.
Our real time weather data display below is updated continuously via our 24/7 live data feed.
 TIME   TEMPERATURE   WINDSPEED   DIRECTION   HUMIDITY   BAROMETER   RAINFALL 
10:35 26.0°C (78.8°F) 0.0 kmh (0.0 mph) NNW 84% 1013.9hPa (29.94 inHg) 0.0mm (0.00 in.)
9:35 26.2°C (79.2 °F) 3.7 kmh (2.3 mph) NW 82% 1013.6hPa (29.93 inHg) 0.0mm (0.00 in.)
8:35 26.4°C (79.5 °F) 9.3 kmh (5.8 mph) NNE 76% 1013.4hPa (29.93 inHg) 0.0mm (0.00 in.)
7:35 26.9°C (80.4 °F) 5.6 kmh (3.5 mph) NW 76% 1012.9hPa (29.91 inHg) 0.0mm (0.00 in.)
6:35 28.1°C (82.6 °F) 9.3 kmh (5.8 mph) N 70% 1012.6hPa (29.90 inHg) 0.0mm (0.00 in.)
5:35 30.6°C (87.1 °F) 1.9 kmh (1.2 mph) NNE 56% 1012.2hPa (29.89 inHg) 0.0mm (0.00 in.)
4:35 31.3°C (88.3 °F) 9.3 kmh (5.8 mph) N 59% 1012.4hPa (29.90 inHg) 0.0mm (0.00 in.)
3:35 30.6°C (87.1 °F) 5.6 kmh (3.5 mph) NNW 56% 1012.7hPa (29.91 inHg) 0.0mm (0.00 in.)
2:35 31.1°C (88.0 °F) 7.4 kmh (4.6 mph) W 56% 1013.0hPa (29.91 inHg) 0.0mm (0.00 in.)
1:35 30.3°C (86.5 °F) 1.9 kmh (1.2 mph) WNW 66% 1013.0hPa (29.91 inHg) 0.0mm (0.00 in.)
12:35 29.4°C (84.9 °F) 13.0 kmh (8.1 mph) NNE 70% 1013.3hPa (29.92 inHg) 0.0mm (0.00 in.)
11:35 28.9°C (84.0 °F) 13.0 kmh (8.1 mph) NNE 70% 1013.3hPa (29.92 inHg) 0.0mm (0.00 in.)
10:35 29.6°C (85.3 °F) 3.7 kmh (2.3 mph) N 71% 1013.2hPa (29.92 inHg) 0.0mm (0.00 in.)
9:35 29.5°C (85.1 °F) 1.9 kmh (1.2 mph) NW 81% 1012.9hPa (29.91 inHg) 0.0mm (0.00 in.)
8:35 27.7°C (81.9 °F) 3.7 kmh (2.3 mph) WNW 82% 1012.7hPa (29.91 inHg) 0.0mm (0.00 in.)
7:35 26.2°C (79.2 °F) 0.0 kmh (0.0 mph) NW 90% 1012.4hPa (29.90 inHg) 0.0mm (0.00 in.)
6:35 25.4°C (77.7 °F) 11.1 kmh (6.9 mph) WNW 90% 1012.0hPa (29.88 inHg) 0.0mm (0.00 in.)
5:35 25.4°C (77.7 °F) 0.0 kmh (0.0 mph) W 89% 1011.6hPa (29.87 inHg) 0.0mm (0.00 in.)
4:35 25.3°C (77.5 °F) 0.0 kmh (0.0 mph) WSW 89% 1011.2hPa (29.86 inHg) 0.0mm (0.00 in.)
3:35 25.2°C (77.4 °F) 0.0 kmh (0.0 mph) WNW 87% 1011.2hPa (29.86 inHg) 0.0mm (0.00 in.)
2:35 25.4°C (77.7 °F) 0.0 kmh (0.0 mph) WNW 86% 1011.7hPa (29.88 inHg) 0.0mm (0.00 in.)
1:35 25.3°C (77.5 °F) 0.0 kmh (0.0 mph) NNW 86% 1012.0hPa (29.88 inHg) 0.0mm (0.00 in.)
12:35 25.5°C (77.9 °F) 0.0 kmh (0.0 mph) NNW 86% 1012.2hPa (29.89 inHg) 0.0mm (0.00 in.)
11:35 25.7°C (78.3 °F) 0.0 kmh (0.0 mph) NNW 85% 1012.3hPa (29.89 inHg) 0.0mm (0.00 in.)